createdAt,value
2024-01-16T00:00:25.897Z,15.97
2024-01-16T00:03:27.539Z,15.96
2024-01-16T00:06:29.197Z,15.97
2024-01-16T00:09:33.421Z,15.98
2024-01-16T00:12:34.933Z,15.97
2024-01-16T00:15:36.597Z,15.96
2024-01-16T00:18:38.302Z,15.95
2024-01-16T00:21:44.087Z,15.95
2024-01-16T00:24:45.602Z,15.94
2024-01-16T00:27:47.546Z,15.91
2024-01-16T00:30:49.106Z,15.90
2024-01-16T00:33:50.941Z,15.89
2024-01-16T00:36:52.755Z,15.89
2024-01-16T00:39:54.332Z,15.88
2024-01-16T00:42:55.897Z,15.89
2024-01-16T00:45:57.523Z,15.87
2024-01-16T00:48:59.137Z,15.87
2024-01-16T00:52:00.761Z,15.87
2024-01-16T00:55:02.413Z,15.86
2024-01-16T00:58:04.229Z,15.88
2024-01-16T01:01:05.895Z,15.89
2024-01-16T01:04:07.621Z,15.89
2024-01-16T01:07:11.693Z,15.90
2024-01-16T01:10:13.464Z,15.89
2024-01-16T01:13:15.102Z,15.89
2024-01-16T01:16:16.778Z,15.88
2024-01-16T01:19:19.129Z,15.87
2024-01-16T01:22:20.727Z,15.86
2024-01-16T01:25:22.899Z,15.84
2024-01-16T01:28:24.557Z,15.83
2024-01-16T01:31:27.209Z,15.84
2024-01-16T01:34:28.944Z,15.80
2024-01-16T01:37:30.517Z,15.80
2024-01-16T01:40:32.115Z,15.80
2024-01-16T01:43:33.649Z,15.80
2024-01-16T01:46:36.552Z,15.78
2024-01-16T01:49:38.761Z,15.77
2024-01-16T01:52:41.938Z,15.77
2024-01-16T01:55:43.851Z,15.78
2024-01-16T01:58:48.344Z,15.80
2024-01-16T02:01:53.755Z,15.80
2024-01-16T02:04:55.524Z,15.82
2024-01-16T02:07:57.239Z,15.81
2024-01-16T02:10:58.860Z,15.81
2024-01-16T02:14:00.385Z,15.80
2024-01-16T02:17:01.934Z,15.81
2024-01-16T02:20:03.846Z,15.79
2024-01-16T02:23:07.294Z,15.78
2024-01-16T02:26:09.091Z,15.77
2024-01-16T02:29:10.870Z,15.75
2024-01-16T02:32:14.257Z,15.75
2024-01-16T02:35:16.728Z,15.74
2024-01-16T02:38:18.365Z,15.74
2024-01-16T02:41:20.153Z,15.74
2024-01-16T02:44:21.803Z,15.72
2024-01-16T02:47:23.475Z,15.71
2024-01-16T02:50:25.087Z,15.71
2024-01-16T02:53:26.879Z,15.69
2024-01-16T02:56:28.506Z,15.70
2024-01-16T02:59:31.739Z,15.72
2024-01-16T03:02:33.334Z,15.72
2024-01-16T03:05:35.065Z,15.72
2024-01-16T03:08:36.798Z,15.74
2024-01-16T03:11:38.544Z,15.74
2024-01-16T03:14:40.327Z,15.74
2024-01-16T03:17:42.199Z,15.73
2024-01-16T03:20:44.399Z,15.73
2024-01-16T03:23:46.113Z,15.71
2024-01-16T03:26:48.070Z,15.71
2024-01-16T03:29:49.787Z,15.69
2024-01-16T03:32:51.422Z,15.66
2024-01-16T03:35:53.705Z,15.65
2024-01-16T03:38:55.402Z,15.63
2024-01-16T03:41:57.200Z,15.62
2024-01-16T03:44:58.846Z,15.63
2024-01-16T03:48:00.637Z,15.61
2024-01-16T03:51:03.690Z,15.60
2024-01-16T03:54:05.310Z,15.61
2024-01-16T03:57:06.916Z,15.63
2024-01-16T04:00:11.546Z,15.64
2024-01-16T04:03:14.194Z,15.64
2024-01-16T04:06:19.389Z,15.67
2024-01-16T04:09:21.083Z,15.66
2024-01-16T04:12:23.069Z,15.66
2024-01-16T04:15:24.682Z,15.65
2024-01-16T04:18:26.363Z,15.65
2024-01-16T04:21:27.995Z,15.64
2024-01-16T04:24:29.540Z,15.64
2024-01-16T04:27:31.308Z,15.63
2024-01-16T04:30:32.970Z,15.60
2024-01-16T04:33:34.843Z,15.59
2024-01-16T04:36:36.652Z,15.56
2024-01-16T04:39:38.201Z,15.56
2024-01-16T04:42:39.919Z,15.55
2024-01-16T04:45:41.818Z,15.55
2024-01-16T04:48:43.948Z,15.55
2024-01-16T04:51:45.511Z,15.54
2024-01-16T04:54:47.161Z,15.55
2024-01-16T04:57:48.696Z,15.57
2024-01-16T05:00:50.319Z,15.59
2024-01-16T05:03:51.897Z,15.58
2024-01-16T05:06:53.699Z,15.57
2024-01-16T05:09:56.256Z,15.58
2024-01-16T05:12:57.849Z,15.57
2024-01-16T05:15:59.411Z,15.57
2024-01-16T05:19:01.069Z,15.55
2024-01-16T05:22:02.659Z,15.55
2024-01-16T05:25:04.520Z,15.54
2024-01-16T05:28:06.156Z,15.53
2024-01-16T05:31:08.532Z,15.51
2024-01-16T05:34:11.180Z,15.51
2024-01-16T05:37:13.026Z,15.50
2024-01-16T05:40:14.580Z,15.48
2024-01-16T05:43:16.213Z,15.49
2024-01-16T05:46:17.770Z,15.49
2024-01-16T05:49:19.399Z,15.50
2024-01-16T05:52:21.944Z,15.50
2024-01-16T05:55:23.582Z,15.54
2024-01-16T05:58:25.204Z,15.55
2024-01-16T06:01:28.452Z,15.59
2024-01-16T06:04:30.951Z,15.61
2024-01-16T06:07:32.575Z,15.65
2024-01-16T06:10:34.068Z,15.70
2024-01-16T06:13:35.726Z,15.74
2024-01-16T06:16:37.327Z,15.76
2024-01-16T06:19:39.018Z,15.77
2024-01-16T06:22:40.644Z,15.78
2024-01-16T06:25:42.234Z,15.79
2024-01-16T06:28:43.939Z,15.81
2024-01-16T06:31:45.513Z,15.84
2024-01-16T06:34:47.054Z,15.86
2024-01-16T06:37:48.730Z,15.88
2024-01-16T06:40:50.260Z,15.87
2024-01-16T06:43:54.532Z,15.88
2024-01-16T06:46:56.116Z,15.88
2024-01-16T06:49:57.736Z,15.85
2024-01-16T06:52:59.306Z,15.84
2024-01-16T06:56:00.874Z,15.79
2024-01-16T06:59:02.399Z,15.78
2024-01-16T07:02:04.582Z,15.76
2024-01-16T07:05:06.437Z,15.74
2024-01-16T07:08:09.185Z,15.73
2024-01-16T07:11:14.243Z,15.71
2024-01-16T07:14:15.843Z,15.71
2024-01-16T07:17:17.596Z,15.69
2024-01-16T07:20:19.204Z,15.67
2024-01-16T07:23:20.881Z,15.69
2024-01-16T07:26:23.936Z,15.72
2024-01-16T07:29:25.608Z,15.73
2024-01-16T07:32:28.413Z,15.74
2024-01-16T07:35:31.052Z,15.75
2024-01-16T07:38:33.134Z,15.75
2024-01-16T07:41:35.048Z,15.75
2024-01-16T07:44:38.105Z,15.76
2024-01-16T07:47:39.816Z,15.75
2024-01-16T07:50:41.475Z,15.74
2024-01-16T07:53:43.122Z,15.73
2024-01-16T07:56:44.829Z,15.72
2024-01-16T07:59:46.437Z,15.70
2024-01-16T08:02:48.456Z,15.71
2024-01-16T08:05:50.110Z,15.72
2024-01-16T08:08:51.943Z,15.75
2024-01-16T08:11:53.596Z,15.79
2024-01-16T08:14:55.456Z,15.81
2024-01-16T08:17:57.212Z,15.84
2024-01-16T08:20:58.978Z,15.86
2024-01-16T08:24:00.980Z,15.89
2024-01-16T08:27:03.950Z,15.92
2024-01-16T08:30:08.166Z,15.97
2024-01-16T08:33:10.100Z,15.98
2024-01-16T08:36:11.936Z,16.00
2024-01-16T08:39:14.662Z,16.04
2024-01-16T08:42:19.368Z,16.07
2024-01-16T08:45:21.063Z,16.07
2024-01-16T08:48:22.871Z,16.07
2024-01-16T08:51:24.622Z,16.12
2024-01-16T08:54:27.450Z,16.13
2024-01-16T08:57:31.007Z,16.15
2024-01-16T09:00:32.927Z,16.15
2024-01-16T09:03:35.549Z,16.16
2024-01-16T09:06:37.295Z,16.16
2024-01-16T09:09:39.077Z,16.17
2024-01-16T09:12:40.661Z,16.17
2024-01-16T09:15:42.330Z,16.17
2024-01-16T09:18:44.091Z,16.19
2024-01-16T09:21:45.871Z,16.20
2024-01-16T09:24:47.726Z,16.22
2024-01-16T09:27:49.276Z,16.22
2024-01-16T09:30:51.441Z,16.24
2024-01-16T09:33:53.159Z,16.23
2024-01-16T09:36:54.741Z,16.23
2024-01-16T09:39:56.329Z,16.22
2024-01-16T09:42:57.902Z,16.25
2024-01-16T09:46:03.578Z,16.28
2024-01-16T09:49:05.748Z,16.27
2024-01-16T09:52:07.468Z,16.28
2024-01-16T09:55:09.309Z,16.28
2024-01-16T09:58:15.468Z,16.31
2024-01-16T10:01:17.516Z,16.30
2024-01-16T10:04:19.414Z,16.29
2024-01-16T10:07:26.900Z,16.28
2024-01-16T10:10:38.578Z,16.28
2024-01-16T10:13:51.913Z,16.31
2024-01-16T10:17:06.500Z,16.34
2024-01-16T10:20:14.356Z,16.34
2024-01-16T10:23:27.401Z,16.39
2024-01-16T10:26:29.014Z,16.38
2024-01-16T10:29:43.295Z,16.43
2024-01-16T10:32:54.483Z,16.43
2024-01-16T10:36:18.685Z,16.46
2024-01-16T10:39:20.312Z,16.46
2024-01-16T10:42:21.911Z,16.46
2024-01-16T10:45:23.630Z,16.46
2024-01-16T10:48:25.323Z,16.46
2024-01-16T10:51:28.847Z,16.47
2024-01-16T10:54:31.400Z,16.45
2024-01-16T10:57:33.585Z,16.46
2024-01-16T11:00:40.643Z,16.48
2024-01-16T11:03:53.991Z,16.49
2024-01-16T11:06:56.222Z,16.48
2024-01-16T11:09:58.128Z,16.48
2024-01-16T11:13:03.101Z,16.47
2024-01-16T11:16:05.631Z,16.46
2024-01-16T11:19:24.998Z,16.46
2024-01-16T11:22:31.046Z,16.47
2024-01-16T11:25:35.768Z,16.48
2024-01-16T11:28:37.723Z,16.45
2024-01-16T11:31:39.367Z,16.45
2024-01-16T11:34:43.896Z,16.45
2024-01-16T11:37:46.262Z,16.44
2024-01-16T11:40:48.783Z,16.44
2024-01-16T11:43:53.272Z,16.45
2024-01-16T11:47:01.607Z,16.46
2024-01-16T11:50:14.130Z,16.45
2024-01-16T11:53:38.562Z,16.46
2024-01-16T11:57:08.165Z,16.45
2024-01-16T12:00:19.924Z,16.44
2024-01-16T12:03:31.565Z,16.46
2024-01-16T12:06:38.729Z,16.47
2024-01-16T12:09:40.512Z,16.51
2024-01-16T12:12:43.576Z,16.56
2024-01-16T12:15:45.311Z,16.59
2024-01-16T12:18:48.379Z,16.60
2024-01-16T12:21:51.547Z,16.62
2024-01-16T12:24:57.964Z,16.65
2024-01-16T12:28:00.570Z,16.66
2024-01-16T12:31:04.041Z,16.66
2024-01-16T12:34:10.268Z,16.68
2024-01-16T12:37:13.713Z,16.68
2024-01-16T12:40:15.723Z,16.68
2024-01-16T12:43:19.525Z,16.69
2024-01-16T12:46:21.248Z,16.72
2024-01-16T12:49:26.647Z,16.75
2024-01-16T12:52:30.978Z,16.77
2024-01-16T12:55:34.042Z,16.81
2024-01-16T12:58:37.274Z,16.83
2024-01-16T13:01:43.073Z,16.86
2024-01-16T13:04:44.871Z,16.85
2024-01-16T13:07:47.595Z,16.88
2024-01-16T13:11:03.169Z,16.91
2024-01-16T13:14:04.823Z,16.91
2024-01-16T13:17:07.697Z,16.93
2024-01-16T13:20:11.742Z,16.94
2024-01-16T13:23:15.325Z,16.93
2024-01-16T13:26:17.759Z,16.91
2024-01-16T13:29:20.525Z,16.89
2024-01-16T13:32:22.688Z,16.86
2024-01-16T13:35:24.333Z,16.84
2024-01-16T13:38:26.021Z,16.84
2024-01-16T13:41:28.788Z,16.81
2024-01-16T13:44:30.548Z,16.81
2024-01-16T13:47:32.434Z,16.82
2024-01-16T13:50:34.332Z,16.82
2024-01-16T13:53:36.386Z,16.83
2024-01-16T13:56:51.611Z,16.87
2024-01-16T14:00:00.376Z,16.93
2024-01-16T14:03:04.406Z,16.97
2024-01-16T14:06:08.291Z,16.99
2024-01-16T14:09:10.856Z,17.01
2024-01-16T14:12:13.204Z,17.05
2024-01-16T14:15:17.386Z,17.07
2024-01-16T14:18:19.104Z,17.05
2024-01-16T14:21:20.812Z,17.07
2024-01-16T14:24:22.700Z,17.07
2024-01-16T14:27:26.036Z,17.08
2024-01-16T14:30:28.068Z,17.08
2024-01-16T14:33:29.867Z,17.11
2024-01-16T14:36:31.506Z,17.10
2024-01-16T14:39:33.106Z,17.12
2024-01-16T14:42:35.302Z,17.12
2024-01-16T14:45:36.888Z,17.12
2024-01-16T14:48:45.910Z,17.14
2024-01-16T14:51:48.100Z,17.13
2024-01-16T14:54:51.149Z,17.14
2024-01-16T14:58:00.972Z,17.16
2024-01-16T15:01:02.653Z,17.19
2024-01-16T15:04:07.241Z,17.18
2024-01-16T15:07:09.055Z,17.21
2024-01-16T15:10:16.360Z,17.27
2024-01-16T15:13:18.029Z,17.28
2024-01-16T15:16:19.855Z,17.30
2024-01-16T15:19:21.848Z,17.31
2024-01-16T15:22:23.453Z,17.32
2024-01-16T15:25:25.759Z,17.31
2024-01-16T15:28:27.363Z,17.31
2024-01-16T15:31:30.389Z,17.32
2024-01-16T15:34:31.980Z,17.34
2024-01-16T15:37:34.607Z,17.35
2024-01-16T15:40:36.173Z,17.32
2024-01-16T15:43:38.137Z,17.31
2024-01-16T15:47:03.034Z,17.35
2024-01-16T15:50:06.113Z,17.35
2024-01-16T15:53:07.694Z,17.34
2024-01-16T15:56:09.988Z,17.35
2024-01-16T15:59:12.297Z,17.35
2024-01-16T16:02:13.916Z,17.36
2024-01-16T16:05:15.650Z,17.37
2024-01-16T16:08:17.367Z,17.37
2024-01-16T16:11:18.985Z,17.38
2024-01-16T16:14:20.987Z,17.38
2024-01-16T16:17:22.723Z,17.38
2024-01-16T16:20:25.823Z,17.37
2024-01-16T16:23:27.534Z,17.37
2024-01-16T16:26:32.681Z,17.37
2024-01-16T16:29:34.270Z,17.38
2024-01-16T16:32:36.012Z,17.39
2024-01-16T16:35:37.861Z,17.37
2024-01-16T16:38:42.344Z,17.36
2024-01-16T16:41:44.254Z,17.34
2024-01-16T16:44:45.932Z,17.33
2024-01-16T16:47:47.496Z,17.32
2024-01-16T16:50:49.782Z,17.32
2024-01-16T16:53:51.768Z,17.31
2024-01-16T16:56:55.601Z,17.29
2024-01-16T16:59:57.417Z,17.29
2024-01-16T17:02:59.073Z,17.32
2024-01-16T17:06:01.675Z,17.34
2024-01-16T17:09:07.484Z,17.36
2024-01-16T17:12:09.208Z,17.38
2024-01-16T17:15:12.110Z,17.38
2024-01-16T17:18:13.857Z,17.39
2024-01-16T17:21:17.433Z,17.43
2024-01-16T17:24:19.355Z,17.41
2024-01-16T17:27:21.923Z,17.43
2024-01-16T17:30:23.948Z,17.45
2024-01-16T17:33:26.867Z,17.44
2024-01-16T17:36:29.769Z,17.44
2024-01-16T17:39:31.714Z,17.47
2024-01-16T17:42:33.308Z,17.52
2024-01-16T17:45:34.987Z,17.57
2024-01-16T17:48:37.153Z,17.62
2024-01-16T17:51:39.609Z,17.67
2024-01-16T17:54:41.179Z,17.67
2024-01-16T17:57:42.871Z,17.68
2024-01-16T18:00:44.459Z,17.69
2024-01-16T18:03:48.727Z,17.67
2024-01-16T18:06:50.944Z,17.65
2024-01-16T18:09:52.538Z,17.62
2024-01-16T18:12:54.089Z,17.59
2024-01-16T18:15:58.185Z,17.57
2024-01-16T18:18:59.852Z,17.55
2024-01-16T18:22:03.136Z,17.54
2024-01-16T18:25:09.662Z,17.56
2024-01-16T18:28:11.298Z,17.53
2024-01-16T18:31:13.981Z,17.54
2024-01-16T18:34:21.261Z,17.53
2024-01-16T18:37:22.961Z,17.51
2024-01-16T18:40:25.677Z,17.51
2024-01-16T18:43:29.089Z,17.52
2024-01-16T18:46:34.061Z,17.52
2024-01-16T18:49:35.730Z,17.51
2024-01-16T18:52:42.754Z,17.52
2024-01-16T18:55:44.507Z,17.51
2024-01-16T18:58:47.136Z,17.51
2024-01-16T19:01:50.918Z,17.53
2024-01-16T19:04:52.510Z,17.51
2024-01-16T19:07:54.794Z,17.53
2024-01-16T19:10:57.574Z,17.54
2024-01-16T19:13:59.093Z,17.53
2024-01-16T19:17:00.691Z,17.53
2024-01-16T19:20:10.456Z,17.50
2024-01-16T19:23:12.077Z,17.50
2024-01-16T19:26:15.297Z,17.52
2024-01-16T19:29:18.283Z,17.53
2024-01-16T19:32:19.930Z,17.52
2024-01-16T19:35:21.738Z,17.52
2024-01-16T19:38:23.571Z,17.52
2024-01-16T19:41:25.370Z,17.50
2024-01-16T19:44:27.017Z,17.52
2024-01-16T19:47:29.787Z,17.53
2024-01-16T19:50:32.376Z,17.53
2024-01-16T19:53:38.958Z,17.54
2024-01-16T19:56:43.430Z,17.56
2024-01-16T19:59:45.501Z,17.52
2024-01-16T20:02:47.640Z,17.52
2024-01-16T20:05:49.334Z,17.51
2024-01-16T20:08:53.173Z,17.50
2024-01-16T20:12:00.144Z,17.53
2024-01-16T20:15:04.529Z,17.54
2024-01-16T20:18:10.170Z,17.54
2024-01-16T20:21:12.200Z,17.55
2024-01-16T20:24:13.847Z,17.55
2024-01-16T20:27:15.425Z,17.54
2024-01-16T20:30:17.604Z,17.53
2024-01-16T20:33:19.667Z,17.53
2024-01-16T20:36:21.508Z,17.54
2024-01-16T20:39:23.388Z,17.55
2024-01-16T20:42:24.929Z,17.54
2024-01-16T20:45:26.880Z,17.54
2024-01-16T20:48:33.820Z,17.52
2024-01-16T20:51:35.949Z,17.50
2024-01-16T20:54:40.668Z,17.52
2024-01-16T20:57:43.912Z,17.53
2024-01-16T21:00:46.523Z,17.54
2024-01-16T21:03:49.233Z,17.52
2024-01-16T21:06:51.021Z,17.51
2024-01-16T21:09:52.702Z,17.51
2024-01-16T21:12:54.291Z,17.51
2024-01-16T21:15:57.665Z,17.51
2024-01-16T21:18:59.319Z,17.52
2024-01-16T21:22:01.461Z,17.53
2024-01-16T21:25:03.230Z,17.54
2024-01-16T21:28:04.804Z,17.52
2024-01-16T21:31:07.421Z,17.53
2024-01-16T21:34:09.529Z,17.52
2024-01-16T21:37:11.059Z,17.50
2024-01-16T21:40:12.597Z,17.51
2024-01-16T21:43:14.843Z,17.52
2024-01-16T21:46:17.745Z,17.52
2024-01-16T21:49:19.419Z,17.53
2024-01-16T21:52:21.523Z,17.54
2024-01-16T21:55:23.145Z,17.51
2024-01-16T21:58:24.686Z,17.51
2024-01-16T22:01:26.427Z,17.51
2024-01-16T22:04:28.499Z,17.52
2024-01-16T22:07:30.145Z,17.51
2024-01-16T22:10:31.655Z,17.49
2024-01-16T22:13:33.246Z,17.46
2024-01-16T22:16:35.576Z,17.45
2024-01-16T22:19:37.520Z,17.43
2024-01-16T22:22:41.769Z,17.42
2024-01-16T22:25:43.381Z,17.42
2024-01-16T22:28:45.948Z,17.42
2024-01-16T22:31:47.646Z,17.42
2024-01-16T22:34:49.198Z,17.43
2024-01-16T22:37:50.825Z,17.42
2024-01-16T22:40:52.407Z,17.38
2024-01-16T22:43:55.546Z,17.35
2024-01-16T22:46:57.601Z,17.33
2024-01-16T22:50:00.051Z,17.31
2024-01-16T22:53:03.628Z,17.29
2024-01-16T22:56:05.558Z,17.26
2024-01-16T22:59:08.303Z,17.23
2024-01-16T23:02:11.188Z,17.21
2024-01-16T23:05:21.024Z,17.20
2024-01-16T23:08:22.880Z,17.16
2024-01-16T23:11:25.078Z,17.14
2024-01-16T23:14:26.861Z,17.10
2024-01-16T23:17:28.547Z,17.09
2024-01-16T23:20:31.785Z,17.08
2024-01-16T23:23:33.418Z,17.05
2024-01-16T23:26:36.100Z,17.07
2024-01-16T23:29:39.111Z,17.05
2024-01-16T23:32:40.862Z,17.02
2024-01-16T23:35:44.430Z,17.02
2024-01-16T23:38:46.259Z,17.00
2024-01-16T23:41:47.886Z,16.99
2024-01-16T23:44:50.064Z,16.99
2024-01-16T23:47:53.135Z,16.97
2024-01-16T23:50:55.072Z,16.94
2024-01-16T23:53:57.036Z,16.94
2024-01-16T23:56:59.591Z,16.92
